sensor_id;sensor_type;location;lat;lon;timestamp;pressure;altitude;pressure_sealevel;temperature;humidity
37694;BME280;23531;50.122;8.644;2023-04-08T00:00:12;100944.59;;;9.68;nan
37694;BME280;23531;50.122;8.644;2023-04-08T00:02:14;100940.88;;;9.69;nan
37694;BME280;23531;50.122;8.644;2023-04-08T00:04:16;100936.91;;;9.65;nan
37694;BME280;23531;50.122;8.644;2023-04-08T00:06:17;100935.44;;;9.63;nan
37694;BME280;23531;50.122;8.644;2023-04-08T00:08:19;100938.81;;;9.71;nan
37694;BME280;23531;50.122;8.644;2023-04-08T00:10:20;100930.69;;;9.86;nan
37694;BME280;23531;50.122;8.644;2023-04-08T00:12:21;100931.91;;;9.83;nan
37694;BME280;23531;50.122;8.644;2023-04-08T00:14:22;100932.94;;;9.82;nan
37694;BME280;23531;50.122;8.644;2023-04-08T00:16:24;100932.03;;;9.75;nan
37694;BME280;23531;50.122;8.644;2023-04-08T00:18:25;100930.19;;;9.76;nan
37694;BME280;23531;50.122;8.644;2023-04-08T00:20:28;100939.72;;;9.78;nan
37694;BME280;23531;50.122;8.644;2023-04-08T00:22:29;100948.34;;;9.74;nan
37694;BME280;23531;50.122;8.644;2023-04-08T00:24:30;100943.09;;;9.66;nan
37694;BME280;23531;50.122;8.644;2023-04-08T00:26:32;100942.41;;;9.57;nan
37694;BME280;23531;50.122;8.644;2023-04-08T00:28:33;100946.75;;;9.58;nan
37694;BME280;23531;50.122;8.644;2023-04-08T00:30:34;100943.25;;;9.58;nan
37694;BME280;23531;50.122;8.644;2023-04-08T00:32:36;100948.53;;;9.51;nan
37694;BME280;23531;50.122;8.644;2023-04-08T00:34:37;100944.81;;;9.52;nan
37694;BME280;23531;50.122;8.644;2023-04-08T00:36:39;100950.56;;;9.49;nan
37694;BME280;23531;50.122;8.644;2023-04-08T00:38:41;100944.47;;;9.40;nan
37694;BME280;23531;50.122;8.644;2023-04-08T00:40:42;100950.22;;;9.37;nan
37694;BME280;23531;50.122;8.644;2023-04-08T00:42:43;100945.44;;;9.33;nan
37694;BME280;23531;50.122;8.644;2023-04-08T00:44:44;100947.09;;;9.34;nan
37694;BME280;23531;50.122;8.644;2023-04-08T00:46:46;100948.88;;;9.27;nan
37694;BME280;23531;50.122;8.644;2023-04-08T00:48:47;100948.78;;;9.35;nan
37694;BME280;23531;50.122;8.644;2023-04-08T00:50:48;100948.31;;;9.31;nan
37694;BME280;23531;50.122;8.644;2023-04-08T00:52:51;100950.72;;;9.26;nan
37694;BME280;23531;50.122;8.644;2023-04-08T00:54:52;100953.91;;;9.00;nan
37694;BME280;23531;50.122;8.644;2023-04-08T00:56:53;100953.56;;;8.89;nan
37694;BME280;23531;50.122;8.644;2023-04-08T00:58:55;100955.03;;;8.91;nan
37694;BME280;23531;50.122;8.644;2023-04-08T01:00:57;100960.84;;;8.95;nan
37694;BME280;23531;50.122;8.644;2023-04-08T01:03:01;100953.91;;;9.00;nan
37694;BME280;23531;50.122;8.644;2023-04-08T01:05:06;100965.47;;;8.86;nan
37694;BME280;23531;50.122;8.644;2023-04-08T01:07:11;100957.25;;;8.73;nan
37694;BME280;23531;50.122;8.644;2023-04-08T01:09:14;100964.09;;;8.76;nan
37694;BME280;23531;50.122;8.644;2023-04-08T01:11:18;100960.22;;;8.78;nan
37694;BME280;23531;50.122;8.644;2023-04-08T01:13:20;100952.53;;;8.75;nan
37694;BME280;23531;50.122;8.644;2023-04-08T01:15:23;100952.91;;;8.72;nan
37694;BME280;23531;50.122;8.644;2023-04-08T01:17:26;100949.69;;;8.77;nan
37694;BME280;23531;50.122;8.644;2023-04-08T01:19:28;100945.78;;;8.94;nan
37694;BME280;23531;50.122;8.644;2023-04-08T01:21:30;100945.88;;;8.86;nan
37694;BME280;23531;50.122;8.644;2023-04-08T01:23:34;100951.72;;;8.74;nan
37694;BME280;23531;50.122;8.644;2023-04-08T01:25:38;100949.97;;;8.67;nan
37694;BME280;23531;50.122;8.644;2023-04-08T01:27:41;100957.44;;;8.57;nan
37694;BME280;23531;50.122;8.644;2023-04-08T01:29:43;100965.00;;;8.53;nan
37694;BME280;23531;50.122;8.644;2023-04-08T01:31:44;100955.56;;;8.43;nan
37694;BME280;23531;50.122;8.644;2023-04-08T01:33:47;100963.78;;;8.41;nan
37694;BME280;23531;50.122;8.644;2023-04-08T01:35:49;100963.97;;;8.40;nan
37694;BME280;23531;50.122;8.644;2023-04-08T01:37:51;100964.09;;;8.46;nan
37694;BME280;23531;50.122;8.644;2023-04-08T01:39:54;100968.16;;;8.42;nan
37694;BME280;23531;50.122;8.644;2023-04-08T01:41:56;100963.63;;;8.43;nan
37694;BME280;23531;50.122;8.644;2023-04-08T01:43:59;100956.63;;;8.56;nan
37694;BME280;23531;50.122;8.644;2023-04-08T01:46:00;100954.50;;;8.66;nan
37694;BME280;23531;50.122;8.644;2023-04-08T01:48:02;100959.84;;;8.66;nan
37694;BME280;23531;50.122;8.644;2023-04-08T01:50:04;100957.53;;;8.63;nan
37694;BME280;23531;50.122;8.644;2023-04-08T01:52:06;100950.88;;;8.59;nan
37694;BME280;23531;50.122;8.644;2023-04-08T01:54:09;100958.06;;;8.59;nan
37694;BME280;23531;50.122;8.644;2023-04-08T01:56:10;100951.88;;;8.58;nan
37694;BME280;23531;50.122;8.644;2023-04-08T01:58:15;100957.91;;;8.46;nan
37694;BME280;23531;50.122;8.644;2023-04-08T02:00:20;100959.09;;;8.43;nan
